createdAt,value
2023-05-14T00:00:28.018Z,1006.99
2023-05-14T00:01:28.360Z,1006.93
2023-05-14T00:02:28.109Z,1006.96
2023-05-14T00:03:28.204Z,1006.92
2023-05-14T00:04:28.054Z,1006.92
2023-05-14T00:05:28.443Z,1006.94
2023-05-14T00:06:28.037Z,1006.99
2023-05-14T00:07:28.043Z,1006.95
2023-05-14T00:08:28.181Z,1006.94
2023-05-14T00:09:28.028Z,1006.95
2023-05-14T00:10:28.508Z,1006.95
2023-05-14T00:11:28.162Z,1006.91
2023-05-14T00:12:28.070Z,1006.96
2023-05-14T00:13:28.582Z,1006.95
2023-05-14T00:14:28.178Z,1006.95
2023-05-14T00:15:28.218Z,1006.92
2023-05-14T00:16:28.264Z,1006.90
2023-05-14T00:17:28.029Z,1006.89
2023-05-14T00:18:28.225Z,1006.89
2023-05-14T00:19:28.332Z,1006.90
2023-05-14T00:20:28.410Z,1006.93
2023-05-14T00:21:28.469Z,1006.93
2023-05-14T00:22:28.491Z,1006.91
2023-05-14T00:23:28.373Z,1006.94
2023-05-14T00:24:28.893Z,1006.96
2023-05-14T00:25:27.967Z,1006.95
2023-05-14T00:26:28.904Z,1006.94
2023-05-14T00:27:27.860Z,1006.92
2023-05-14T00:28:28.388Z,1006.94
2023-05-14T00:29:28.390Z,1006.90
2023-05-14T00:30:28.052Z,1006.90
2023-05-14T00:31:27.963Z,1006.89
2023-05-14T00:32:28.124Z,1006.88
2023-05-14T00:33:28.978Z,1006.87
2023-05-14T00:34:27.861Z,1006.86
2023-05-14T00:35:28.520Z,1006.85
2023-05-14T00:36:27.784Z,1006.87
2023-05-14T00:37:28.452Z,1006.84
2023-05-14T00:38:28.282Z,1006.80
2023-05-14T00:39:27.814Z,1006.77
2023-05-14T00:40:27.835Z,1006.78
2023-05-14T00:41:27.741Z,1006.78
2023-05-14T00:42:27.744Z,1006.75
2023-05-14T00:43:27.732Z,1006.80
2023-05-14T00:44:27.771Z,1006.79
2023-05-14T00:45:27.869Z,1006.78
2023-05-14T00:46:27.749Z,1006.80
2023-05-14T00:47:27.865Z,1006.83
2023-05-14T00:48:27.768Z,1006.78
2023-05-14T00:49:27.797Z,1006.78
2023-05-14T00:50:27.873Z,1006.74
2023-05-14T00:51:27.920Z,1006.73
2023-05-14T00:52:27.702Z,1006.72
2023-05-14T00:53:28.073Z,1006.69
2023-05-14T00:54:28.153Z,1006.70
2023-05-14T00:55:27.914Z,1006.69
2023-05-14T00:56:27.649Z,1006.64
2023-05-14T00:57:28.333Z,1006.68
2023-05-14T00:58:28.369Z,1006.68
2023-05-14T00:59:28.458Z,1006.67
2023-05-14T01:00:28.004Z,1006.69
2023-05-14T01:01:28.247Z,1006.69
2023-05-14T01:02:27.949Z,1006.66
2023-05-14T01:03:28.723Z,1006.72
2023-05-14T01:04:27.604Z,1006.68
2023-05-14T01:05:27.641Z,1006.76
2023-05-14T01:06:27.859Z,1006.72
2023-05-14T01:07:28.004Z,1006.72
2023-05-14T01:08:28.115Z,1006.78
2023-05-14T01:09:27.584Z,1006.78
2023-05-14T01:10:28.238Z,1006.73
2023-05-14T01:11:28.356Z,1006.79
2023-05-14T01:12:28.513Z,1006.75
2023-05-14T01:13:28.046Z,1006.64
2023-05-14T01:14:27.678Z,1006.64
2023-05-14T01:15:28.202Z,1006.68
2023-05-14T01:16:27.672Z,1006.63
2023-05-14T01:17:27.549Z,1006.71
2023-05-14T01:18:27.615Z,1006.71
2023-05-14T01:19:27.672Z,1006.68
2023-05-14T01:20:27.707Z,1006.64
2023-05-14T01:21:27.743Z,1006.61
2023-05-14T01:22:27.835Z,1006.60
2023-05-14T01:23:27.498Z,1006.61
2023-05-14T01:24:27.626Z,1006.62
2023-05-14T01:25:28.014Z,1006.57
2023-05-14T01:26:28.090Z,1006.58
2023-05-14T01:27:28.162Z,1006.57
2023-05-14T01:28:27.560Z,1006.55
2023-05-14T01:29:27.587Z,1006.53
2023-05-14T01:30:28.374Z,1006.51
2023-05-14T01:31:27.408Z,1006.52
2023-05-14T01:32:27.700Z,1006.51
2023-05-14T01:33:27.565Z,1006.55
2023-05-14T01:34:27.419Z,1006.52
2023-05-14T01:35:27.485Z,1006.52
2023-05-14T01:36:27.541Z,1006.49
2023-05-14T01:37:27.370Z,1006.51
2023-05-14T01:38:27.640Z,1006.49
2023-05-14T01:39:27.690Z,1006.43
2023-05-14T01:40:27.740Z,1006.49
2023-05-14T01:41:27.337Z,1006.47
2023-05-14T01:42:27.566Z,1006.53
2023-05-14T01:43:27.489Z,1006.45
2023-05-14T01:44:27.328Z,1006.48
2023-05-14T01:45:27.384Z,1006.45
2023-05-14T01:46:27.476Z,1006.42
2023-05-14T01:47:27.518Z,1006.44
2023-05-14T01:48:27.577Z,1006.39
2023-05-14T01:49:27.650Z,1006.47
2023-05-14T01:50:27.269Z,1006.48
2023-05-14T01:51:27.354Z,1006.44
2023-05-14T01:52:27.265Z,1006.35
2023-05-14T01:53:27.898Z,1006.43
2023-05-14T01:54:27.936Z,1006.39
2023-05-14T01:55:27.464Z,1006.39
2023-05-14T01:56:27.291Z,1006.39
2023-05-14T01:57:27.280Z,1006.38
2023-05-14T01:58:27.747Z,1006.43
2023-05-14T01:59:27.350Z,1006.42
2023-05-14T02:00:27.929Z,1006.45
2023-05-14T02:01:27.296Z,1006.46
2023-05-14T02:02:27.327Z,1006.49
2023-05-14T02:03:27.964Z,1006.49
2023-05-14T02:04:27.682Z,1006.48
2023-05-14T02:05:27.921Z,1006.42
2023-05-14T02:06:28.184Z,1006.44
2023-05-14T02:07:28.085Z,1006.40
2023-05-14T02:08:27.238Z,1006.38
2023-05-14T02:09:27.741Z,1006.39
2023-05-14T02:10:28.058Z,1006.43
2023-05-14T02:11:27.956Z,1006.44
2023-05-14T02:12:28.017Z,1006.42
2023-05-14T02:13:27.094Z,1006.35
2023-05-14T02:14:27.122Z,1006.37
2023-05-14T02:15:27.163Z,1006.40
2023-05-14T02:16:27.282Z,1006.38
2023-05-14T02:17:27.317Z,1006.37
2023-05-14T02:18:27.339Z,1006.36
2023-05-14T02:19:27.384Z,1006.36
2023-05-14T02:20:27.061Z,1006.36
2023-05-14T02:21:27.054Z,1006.40
2023-05-14T02:22:27.045Z,1006.38
2023-05-14T02:23:37.829Z,1006.34
2023-05-14T02:24:27.067Z,1006.34
2023-05-14T02:25:27.038Z,1006.34
2023-05-14T02:26:27.085Z,1006.34
2023-05-14T02:27:27.054Z,1006.36
2023-05-14T02:28:27.127Z,1006.37
2023-05-14T02:29:27.146Z,1006.40
2023-05-14T02:30:27.131Z,1006.43
2023-05-14T02:31:27.090Z,1006.38
2023-05-14T02:32:27.219Z,1006.40
2023-05-14T02:33:27.158Z,1006.44
2023-05-14T02:34:27.136Z,1006.33
2023-05-14T02:35:27.168Z,1006.44
2023-05-14T02:36:27.164Z,1006.39
2023-05-14T02:37:26.951Z,1006.36
2023-05-14T02:38:27.194Z,1006.36
2023-05-14T02:39:26.935Z,1006.38
2023-05-14T02:40:27.207Z,1006.36
2023-05-14T02:41:27.220Z,1006.37
2023-05-14T02:42:26.990Z,1006.38
2023-05-14T02:43:27.237Z,1006.39
2023-05-14T02:44:27.003Z,1006.35
2023-05-14T02:45:27.006Z,1006.36
2023-05-14T02:46:27.027Z,1006.36
2023-05-14T02:47:26.946Z,1006.34
2023-05-14T02:48:27.059Z,1006.38
2023-05-14T02:49:27.022Z,1006.33
2023-05-14T02:50:26.974Z,1006.36
2023-05-14T02:51:27.218Z,1006.37
2023-05-14T02:52:26.869Z,1006.32
2023-05-14T02:53:26.844Z,1006.32
2023-05-14T02:54:27.357Z,1006.33
2023-05-14T02:55:27.374Z,1006.30
2023-05-14T02:56:27.183Z,1006.29
2023-05-14T02:57:27.407Z,1006.34
2023-05-14T02:58:28.458Z,1006.28
2023-05-14T02:59:27.422Z,1006.32
2023-05-14T03:00:27.178Z,1006.28
2023-05-14T03:01:27.392Z,1006.27
2023-05-14T03:02:27.211Z,1006.25
2023-05-14T03:03:27.505Z,1006.25
2023-05-14T03:04:27.480Z,1006.25
2023-05-14T03:05:26.776Z,1006.22
2023-05-14T03:06:27.488Z,1006.23
2023-05-14T03:07:26.801Z,1006.27
2023-05-14T03:08:27.232Z,1006.24
2023-05-14T03:09:27.522Z,1006.24
2023-05-14T03:10:27.374Z,1006.23
2023-05-14T03:11:27.497Z,1006.25
2023-05-14T03:12:26.770Z,1006.30
2023-05-14T03:13:26.730Z,1006.23
2023-05-14T03:14:26.833Z,1006.27
2023-05-14T03:15:26.833Z,1006.26
2023-05-14T03:16:26.938Z,1006.25
2023-05-14T03:17:26.973Z,1006.30
2023-05-14T03:18:27.015Z,1006.32
2023-05-14T03:19:26.723Z,1006.24
2023-05-14T03:20:26.798Z,1006.28
2023-05-14T03:21:26.669Z,1006.26
2023-05-14T03:22:26.723Z,1006.24
2023-05-14T03:23:26.686Z,1006.27
2023-05-14T03:24:26.827Z,1006.30
2023-05-14T03:25:26.858Z,1006.22
2023-05-14T03:26:26.920Z,1006.26
2023-05-14T03:27:26.958Z,1006.28
2023-05-14T03:28:26.877Z,1006.30
2023-05-14T03:29:27.046Z,1006.30
2023-05-14T03:30:27.221Z,1006.31
2023-05-14T03:31:26.989Z,1006.25
2023-05-14T03:32:27.259Z,1006.27
2023-05-14T03:33:27.173Z,1006.29
2023-05-14T03:34:26.584Z,1006.24
2023-05-14T03:35:26.876Z,1006.26
2023-05-14T03:36:27.114Z,1006.25
2023-05-14T03:37:26.548Z,1006.26
2023-05-14T03:38:26.548Z,1006.20
2023-05-14T03:39:26.560Z,1006.20
2023-05-14T03:40:26.639Z,1006.24
2023-05-14T03:41:26.585Z,1006.23
2023-05-14T03:42:26.616Z,1006.27
2023-05-14T03:43:26.519Z,1006.29
2023-05-14T03:44:26.532Z,1006.26
2023-05-14T03:45:26.597Z,1006.24
2023-05-14T03:46:26.670Z,1006.27
2023-05-14T03:47:26.727Z,1006.24
2023-05-14T03:48:26.771Z,1006.29
2023-05-14T03:49:26.700Z,1006.27
2023-05-14T03:50:26.727Z,1006.29
2023-05-14T03:51:26.511Z,1006.25
2023-05-14T03:52:26.500Z,1006.30
2023-05-14T03:53:26.461Z,1006.33
2023-05-14T03:54:26.741Z,1006.27
2023-05-14T03:55:26.773Z,1006.33
2023-05-14T03:56:27.942Z,1006.34
2023-05-14T03:57:26.799Z,1006.33
2023-05-14T03:58:26.550Z,1006.28
2023-05-14T03:59:26.706Z,1006.26
2023-05-14T04:00:27.478Z,1006.27
2023-05-14T04:01:26.788Z,1006.25
2023-05-14T04:02:27.966Z,1006.27
2023-05-14T04:03:26.433Z,1006.31
2023-05-14T04:04:26.453Z,1006.26
2023-05-14T04:05:26.381Z,1006.23
2023-05-14T04:06:26.440Z,1006.21
2023-05-14T04:07:26.487Z,1006.23
2023-05-14T04:08:26.412Z,1006.24
2023-05-14T04:09:26.330Z,1006.25
2023-05-14T04:10:26.433Z,1006.21
2023-05-14T04:11:26.346Z,1006.22
2023-05-14T04:12:26.353Z,1006.24
2023-05-14T04:13:26.350Z,1006.21
2023-05-14T04:14:26.307Z,1006.24
2023-05-14T04:15:26.372Z,1006.30
2023-05-14T04:16:26.466Z,1006.23
2023-05-14T04:17:26.485Z,1006.29
2023-05-14T04:18:26.622Z,1006.29
2023-05-14T04:19:26.274Z,1006.29
2023-05-14T04:20:26.626Z,1006.27
2023-05-14T04:21:26.268Z,1006.29
2023-05-14T04:22:26.274Z,1006.27
2023-05-14T04:23:26.287Z,1006.28
2023-05-14T04:24:26.304Z,1006.29
2023-05-14T04:25:26.312Z,1006.29
2023-05-14T04:26:26.246Z,1006.29
2023-05-14T04:27:26.239Z,1006.27
2023-05-14T04:28:26.246Z,1006.23
2023-05-14T04:29:26.381Z,1006.23
2023-05-14T04:30:26.425Z,1006.23
2023-05-14T04:31:26.414Z,1006.21
2023-05-14T04:32:26.424Z,1006.22
2023-05-14T04:33:26.255Z,1006.16
2023-05-14T04:34:26.445Z,1006.14
2023-05-14T04:35:26.445Z,1006.13
2023-05-14T04:36:26.233Z,1006.16
2023-05-14T04:37:26.493Z,1006.17
2023-05-14T04:38:26.138Z,1006.16
2023-05-14T04:39:26.133Z,1006.15
2023-05-14T04:40:26.462Z,1006.15
2023-05-14T04:41:26.231Z,1006.15
2023-05-14T04:42:26.271Z,1006.18
2023-05-14T04:43:26.116Z,1006.17
2023-05-14T04:44:26.277Z,1006.20
2023-05-14T04:45:26.439Z,1006.19
2023-05-14T04:46:26.517Z,1006.16
2023-05-14T04:47:26.598Z,1006.21
2023-05-14T04:48:26.640Z,1006.14
2023-05-14T04:49:26.184Z,1006.16
2023-05-14T04:50:26.646Z,1006.19
2023-05-14T04:51:26.646Z,1006.11
2023-05-14T04:52:26.672Z,1006.13
2023-05-14T04:53:26.675Z,1006.12
2023-05-14T04:54:26.824Z,1006.20
2023-05-14T04:55:26.708Z,1006.14
2023-05-14T04:56:26.154Z,1006.18
2023-05-14T04:57:26.263Z,1006.11
2023-05-14T04:58:26.147Z,1006.15
2023-05-14T04:59:26.765Z,1006.16
2023-05-14T05:00:26.741Z,1006.16
2023-05-14T05:01:26.028Z,1006.05
2023-05-14T05:02:26.142Z,1006.08
2023-05-14T05:03:26.602Z,1006.05
2023-05-14T05:04:26.827Z,1006.07
2023-05-14T05:05:26.107Z,1006.10
2023-05-14T05:06:25.976Z,1006.04
2023-05-14T05:07:26.017Z,1006.08
2023-05-14T05:08:26.063Z,1006.11
2023-05-14T05:09:26.114Z,1006.08
2023-05-14T05:10:26.226Z,1006.09
2023-05-14T05:11:25.955Z,1006.09
2023-05-14T05:12:25.979Z,1006.08
2023-05-14T05:13:26.024Z,1006.07
2023-05-14T05:14:26.083Z,1006.12
2023-05-14T05:15:26.654Z,1006.12
2023-05-14T05:16:26.165Z,1006.12
2023-05-14T05:17:26.260Z,1006.15
2023-05-14T05:18:26.372Z,1006.17
2023-05-14T05:19:35.851Z,1006.13
2023-05-14T05:20:26.430Z,1006.10
2023-05-14T05:21:26.470Z,1006.14
2023-05-14T05:22:26.554Z,1006.11
2023-05-14T05:23:26.292Z,1006.13
2023-05-14T05:24:26.665Z,1006.02
2023-05-14T05:25:25.824Z,1006.10
2023-05-14T05:26:25.836Z,1006.09
2023-05-14T05:27:25.867Z,1006.05
2023-05-14T05:28:25.871Z,1006.10
2023-05-14T05:29:25.870Z,1006.10
2023-05-14T05:30:26.058Z,1006.13
2023-05-14T05:31:25.926Z,1006.08
2023-05-14T05:32:25.895Z,1006.13
2023-05-14T05:33:25.902Z,1006.09
2023-05-14T05:34:25.888Z,1006.07
2023-05-14T05:35:26.328Z,1006.05
2023-05-14T05:36:26.299Z,1006.05
2023-05-14T05:37:25.760Z,1006.09
2023-05-14T05:38:25.754Z,1006.06
2023-05-14T05:39:25.800Z,1006.02
2023-05-14T05:40:25.928Z,1005.98
2023-05-14T05:41:25.731Z,1005.99
2023-05-14T05:42:25.728Z,1006.01
2023-05-14T05:43:25.770Z,1006.04
2023-05-14T05:44:25.735Z,1006.02
2023-05-14T05:45:25.901Z,1006.06
2023-05-14T05:46:25.826Z,1006.02
2023-05-14T05:47:26.060Z,1006.01
2023-05-14T05:48:26.136Z,1006.02
2023-05-14T05:49:26.241Z,1005.98
2023-05-14T05:50:26.118Z,1005.98
2023-05-14T05:51:25.661Z,1005.92
2023-05-14T05:52:25.689Z,1005.91
2023-05-14T05:53:26.504Z,1005.97
2023-05-14T05:54:26.045Z,1005.95
2023-05-14T05:55:26.157Z,1005.97
2023-05-14T05:56:25.605Z,1005.96
2023-05-14T05:57:26.380Z,1005.98
2023-05-14T05:58:25.621Z,1005.98
2023-05-14T05:59:25.640Z,1006.03
2023-05-14T06:00:25.979Z,1005.98
2023-05-14T06:01:25.691Z,1006.01
2023-05-14T06:02:25.825Z,1006.03
2023-05-14T06:03:25.704Z,1006.08
2023-05-14T06:04:25.857Z,1006.10
2023-05-14T06:05:25.736Z,1006.09
2023-05-14T06:06:25.951Z,1006.07
2023-05-14T06:07:25.703Z,1006.02
2023-05-14T06:08:25.557Z,1005.99
2023-05-14T06:09:25.564Z,1006.08
2023-05-14T06:10:25.789Z,1006.06
2023-05-14T06:11:25.682Z,1006.05
2023-05-14T06:12:25.815Z,1006.08
2023-05-14T06:13:25.806Z,1006.06
2023-05-14T06:14:25.857Z,1006.11
2023-05-14T06:15:25.912Z,1006.06
2023-05-14T06:16:25.996Z,1006.07
2023-05-14T06:17:25.693Z,1006.09
2023-05-14T06:18:25.940Z,1006.06
2023-05-14T06:19:26.134Z,1006.16
2023-05-14T06:20:26.503Z,1006.13
2023-05-14T06:21:26.142Z,1006.07
2023-05-14T06:22:25.758Z,1006.10
2023-05-14T06:23:25.443Z,1006.10
2023-05-14T06:24:25.506Z,1006.09
2023-05-14T06:25:26.166Z,1006.12
2023-05-14T06:26:26.206Z,1006.13
2023-05-14T06:27:25.519Z,1006.14
2023-05-14T06:28:25.417Z,1006.14
2023-05-14T06:29:25.421Z,1006.13
2023-05-14T06:30:25.749Z,1006.06
2023-05-14T06:31:25.468Z,1006.17
2023-05-14T06:32:26.210Z,1006.14
2023-05-14T06:33:25.437Z,1006.10
2023-05-14T06:34:25.446Z,1006.08
2023-05-14T06:35:25.449Z,1006.08
2023-05-14T06:36:25.458Z,1006.09
2023-05-14T06:37:25.389Z,1006.10
2023-05-14T06:38:25.345Z,1006.10
2023-05-14T06:39:25.366Z,1006.11
2023-05-14T06:40:25.574Z,1006.13
2023-05-14T06:41:25.413Z,1006.17
2023-05-14T06:42:25.312Z,1006.15
2023-05-14T06:43:25.301Z,1006.07
2023-05-14T06:44:25.450Z,1006.11
2023-05-14T06:45:25.314Z,1006.16
2023-05-14T06:46:25.473Z,1006.18
2023-05-14T06:47:25.361Z,1006.22
2023-05-14T06:48:25.569Z,1006.20
2023-05-14T06:49:25.496Z,1006.23
2023-05-14T06:50:25.765Z,1006.18
2023-05-14T06:51:25.285Z,1006.26
2023-05-14T06:52:25.236Z,1006.25
2023-05-14T06:53:25.243Z,1006.24
2023-05-14T06:54:25.285Z,1006.24
2023-05-14T06:55:25.245Z,1006.24
2023-05-14T06:56:25.252Z,1006.21
2023-05-14T06:57:25.256Z,1006.14
2023-05-14T06:58:25.208Z,1006.21
2023-05-14T06:59:25.201Z,1006.15
2023-05-14T07:00:25.676Z,1006.16
2023-05-14T07:01:25.344Z,1006.16
2023-05-14T07:02:25.252Z,1006.10
2023-05-14T07:03:25.334Z,1006.17
2023-05-14T07:04:25.370Z,1006.11
2023-05-14T07:05:25.233Z,1006.09
2023-05-14T07:06:25.248Z,1006.10
2023-05-14T07:07:25.392Z,1006.12
2023-05-14T07:08:25.121Z,1006.10
2023-05-14T07:09:25.478Z,1006.10
2023-05-14T07:10:25.639Z,1006.12
2023-05-14T07:11:25.120Z,1006.14
2023-05-14T07:12:25.132Z,1006.09
2023-05-14T07:13:27.641Z,1006.14
2023-05-14T07:14:25.116Z,1006.13
2023-05-14T07:15:25.142Z,1006.11
2023-05-14T07:16:25.166Z,1006.10
2023-05-14T07:17:25.354Z,1006.04
2023-05-14T07:18:25.392Z,1006.05
2023-05-14T07:19:25.426Z,1006.08
2023-05-14T07:20:25.645Z,1006.07
2023-05-14T07:21:25.553Z,1006.09
2023-05-14T07:22:25.029Z,1006.06
2023-05-14T07:23:25.601Z,1006.03
2023-05-14T07:24:25.585Z,1006.07
2023-05-14T07:25:25.587Z,1006.04
2023-05-14T07:26:25.587Z,1005.99
2023-05-14T07:27:25.618Z,1006.00
2023-05-14T07:28:25.609Z,1006.00
2023-05-14T07:29:25.203Z,1005.95
2023-05-14T07:30:25.846Z,1005.97
2023-05-14T07:31:25.608Z,1005.94
2023-05-14T07:32:25.498Z,1005.97
2023-05-14T07:33:25.011Z,1005.97
2023-05-14T07:34:25.026Z,1005.97
2023-05-14T07:35:25.230Z,1005.91
2023-05-14T07:36:24.976Z,1005.93
2023-05-14T07:37:24.930Z,1005.91
2023-05-14T07:38:25.048Z,1005.92
2023-05-14T07:39:24.984Z,1005.84
2023-05-14T07:40:25.519Z,1005.89
2023-05-14T07:41:25.073Z,1005.80
2023-05-14T07:42:35.303Z,1005.85
2023-05-14T07:43:25.225Z,1005.77
2023-05-14T07:44:25.307Z,1005.81
2023-05-14T07:45:24.913Z,1005.81
2023-05-14T07:46:24.926Z,1005.73
2023-05-14T07:47:25.002Z,1005.73
2023-05-14T07:48:24.931Z,1005.74
2023-05-14T07:49:24.853Z,1005.69
2023-05-14T07:50:25.241Z,1005.74
2023-05-14T07:51:24.928Z,1005.75
2023-05-14T07:52:25.044Z,1005.70
2023-05-14T07:53:24.942Z,1005.75
2023-05-14T07:54:24.962Z,1005.67
2023-05-14T07:55:24.953Z,1005.70
2023-05-14T07:56:25.011Z,1005.66
2023-05-14T07:57:24.825Z,1005.72
2023-05-14T07:58:24.983Z,1005.71
2023-05-14T07:59:24.981Z,1005.73
2023-05-14T08:00:25.254Z,1005.74
2023-05-14T08:01:24.827Z,1005.66
2023-05-14T08:02:24.842Z,1005.64
2023-05-14T08:03:25.220Z,1005.61
2023-05-14T08:04:25.146Z,1005.64
2023-05-14T08:05:25.080Z,1005.65
2023-05-14T08:06:24.757Z,1005.63
2023-05-14T08:07:24.714Z,1005.65
2023-05-14T08:08:24.764Z,1005.60
2023-05-14T08:09:24.700Z,1005.59
2023-05-14T08:10:25.024Z,1005.59
2023-05-14T08:11:24.711Z,1005.59
2023-05-14T08:12:24.694Z,1005.55
2023-05-14T08:13:24.713Z,1005.53
2023-05-14T08:14:24.989Z,1005.59
2023-05-14T08:15:27.549Z,1005.55
2023-05-14T08:16:25.168Z,1005.56
2023-05-14T08:17:24.922Z,1005.60
2023-05-14T08:18:25.242Z,1005.54
2023-05-14T08:19:25.290Z,1005.53
2023-05-14T08:20:25.868Z,1005.55
2023-05-14T08:21:24.790Z,1005.51
2023-05-14T08:22:25.487Z,1005.52
2023-05-14T08:23:24.623Z,1005.51
2023-05-14T08:24:24.741Z,1005.53
2023-05-14T08:25:25.360Z,1005.50
2023-05-14T08:26:24.616Z,1005.53
2023-05-14T08:27:24.637Z,1005.51
2023-05-14T08:28:24.572Z,1005.52
2023-05-14T08:29:24.640Z,1005.53
2023-05-14T08:30:24.876Z,1005.52
2023-05-14T08:31:24.658Z,1005.51
2023-05-14T08:32:24.658Z,1005.50
2023-05-14T08:33:24.601Z,1005.50
2023-05-14T08:34:24.602Z,1005.49
2023-05-14T08:35:24.644Z,1005.50
2023-05-14T08:36:24.602Z,1005.50
2023-05-14T08:37:24.622Z,1005.47
2023-05-14T08:38:24.593Z,1005.37
2023-05-14T08:39:24.524Z,1005.42
2023-05-14T08:40:24.709Z,1005.42
2023-05-14T08:41:24.525Z,1005.46
2023-05-14T08:42:24.532Z,1005.46
2023-05-14T08:43:24.676Z,1005.47
2023-05-14T08:44:24.547Z,1005.38
2023-05-14T08:45:24.549Z,1005.40
2023-05-14T08:46:24.697Z,1005.33
2023-05-14T08:47:24.516Z,1005.37
2023-05-14T08:48:24.575Z,1005.34
2023-05-14T08:49:24.787Z,1005.36
2023-05-14T08:50:25.175Z,1005.31
2023-05-14T08:51:24.714Z,1005.34
2023-05-14T08:52:24.806Z,1005.32
2023-05-14T08:53:24.825Z,1005.32
2023-05-14T08:54:24.847Z,1005.30
2023-05-14T08:55:24.408Z,1005.28
2023-05-14T08:56:24.620Z,1005.33
2023-05-14T08:57:24.418Z,1005.26
2023-05-14T08:58:24.911Z,1005.28
2023-05-14T08:59:24.899Z,1005.25
2023-05-14T09:00:24.869Z,1005.21
2023-05-14T09:01:24.642Z,1005.28
2023-05-14T09:02:24.537Z,1005.27
2023-05-14T09:03:24.975Z,1005.24
2023-05-14T09:04:24.967Z,1005.32
2023-05-14T09:05:24.496Z,1005.30
2023-05-14T09:06:24.994Z,1005.27
2023-05-14T09:07:24.421Z,1005.18
2023-05-14T09:08:24.323Z,1005.24
2023-05-14T09:09:24.328Z,1005.18
2023-05-14T09:10:24.765Z,1005.16
2023-05-14T09:11:24.481Z,1005.19
2023-05-14T09:12:24.557Z,1005.19
2023-05-14T09:13:25.807Z,1005.22
2023-05-14T09:14:24.670Z,1005.17
2023-05-14T09:15:24.340Z,1005.16
2023-05-14T09:16:24.849Z,1005.18
2023-05-14T09:17:24.330Z,1005.14
2023-05-14T09:18:24.979Z,1005.13
2023-05-14T09:19:24.965Z,1005.14
2023-05-14T09:20:25.535Z,1005.13
2023-05-14T09:21:24.847Z,1005.15
2023-05-14T09:22:24.397Z,1005.15
2023-05-14T09:23:24.803Z,1005.19
2023-05-14T09:24:24.530Z,1005.15
2023-05-14T09:25:25.254Z,1005.11
2023-05-14T09:26:24.949Z,1005.13
2023-05-14T09:27:24.551Z,1005.17
2023-05-14T09:28:24.750Z,1005.21
2023-05-14T09:29:24.199Z,1005.12
2023-05-14T09:30:25.361Z,1005.07
2023-05-14T09:31:24.175Z,1005.10
2023-05-14T09:32:24.695Z,1005.06
2023-05-14T09:33:24.473Z,1005.09
2023-05-14T09:34:24.824Z,1005.08
2023-05-14T09:35:25.027Z,1005.06
2023-05-14T09:36:24.109Z,1005.07
2023-05-14T09:37:24.107Z,1005.08
2023-05-14T09:38:24.114Z,1005.07
2023-05-14T09:39:24.188Z,1005.05
2023-05-14T09:40:24.819Z,1005.05
2023-05-14T09:41:24.127Z,1005.08
2023-05-14T09:42:24.236Z,1005.08
2023-05-14T09:43:24.098Z,1005.06
2023-05-14T09:44:24.136Z,1005.02
2023-05-14T09:45:24.429Z,1005.06
2023-05-14T09:46:24.441Z,1005.08
2023-05-14T09:47:24.575Z,1004.98
2023-05-14T09:48:24.557Z,1005.10
2023-05-14T09:49:24.248Z,1005.12
2023-05-14T09:50:24.667Z,1005.07
2023-05-14T09:51:24.009Z,1005.06
2023-05-14T09:52:23.998Z,1005.08
2023-05-14T09:53:24.027Z,1005.02
2023-05-14T09:54:24.010Z,1005.01
2023-05-14T09:55:23.997Z,1004.99
2023-05-14T09:56:23.973Z,1005.00
2023-05-14T09:57:23.995Z,1005.01
2023-05-14T09:58:24.345Z,1004.95
2023-05-14T09:59:24.029Z,1004.97
2023-05-14T10:00:24.106Z,1004.92
2023-05-14T10:01:24.522Z,1004.96
2023-05-14T10:02:24.567Z,1004.95
2023-05-14T10:03:24.029Z,1004.86
2023-05-14T10:04:23.975Z,1004.89
2023-05-14T10:05:23.927Z,1004.92
2023-05-14T10:06:23.972Z,1004.85
2023-05-14T10:07:24.037Z,1004.83
2023-05-14T10:08:23.956Z,1004.86
2023-05-14T10:09:23.903Z,1004.84
2023-05-14T10:10:24.283Z,1004.83
2023-05-14T10:11:23.945Z,1004.89
2023-05-14T10:12:24.215Z,1004.86
2023-05-14T10:13:24.161Z,1004.83
2023-05-14T10:14:24.469Z,1004.84
2023-05-14T10:15:24.507Z,1004.86
2023-05-14T10:16:24.447Z,1004.85
2023-05-14T10:17:24.057Z,1004.86
2023-05-14T10:18:24.700Z,1004.84
2023-05-14T10:19:24.339Z,1004.83
2023-05-14T10:20:24.399Z,1004.83
2023-05-14T10:21:24.489Z,1004.86
2023-05-14T10:22:23.963Z,1004.77
2023-05-14T10:23:24.821Z,1004.82
2023-05-14T10:24:24.281Z,1004.81
2023-05-14T10:25:24.097Z,1004.80
2023-05-14T10:26:24.357Z,1004.74
2023-05-14T10:27:24.633Z,1004.79
2023-05-14T10:28:23.965Z,1004.78
2023-05-14T10:29:24.269Z,1004.79
2023-05-14T10:30:24.427Z,1004.75
2023-05-14T10:31:24.118Z,1004.74
2023-05-14T10:32:23.885Z,1004.74
2023-05-14T10:33:23.806Z,1004.72
2023-05-14T10:34:23.804Z,1004.70
2023-05-14T10:35:23.933Z,1004.59
2023-05-14T10:36:23.739Z,1004.64
2023-05-14T10:37:23.744Z,1004.63
2023-05-14T10:38:23.839Z,1004.63
2023-05-14T10:39:23.855Z,1004.65
2023-05-14T10:40:24.284Z,1004.67
2023-05-14T10:41:23.986Z,1004.61
2023-05-14T10:42:23.988Z,1004.69
2023-05-14T10:43:23.986Z,1004.56
2023-05-14T10:44:24.089Z,1004.60
2023-05-14T10:45:24.112Z,1004.55
2023-05-14T10:46:23.830Z,1004.52
2023-05-14T10:47:23.821Z,1004.51
2023-05-14T10:48:23.776Z,1004.58
2023-05-14T10:49:36.187Z,1004.42
2023-05-14T10:50:24.116Z,1004.43
2023-05-14T10:51:23.767Z,1004.50
2023-05-14T10:52:23.843Z,1004.46
2023-05-14T10:53:23.739Z,1004.46
2023-05-14T10:54:23.751Z,1004.54
2023-05-14T10:55:23.668Z,1004.54
2023-05-14T10:56:23.555Z,1004.55
2023-05-14T10:57:23.766Z,1004.28
2023-05-14T10:58:23.763Z,1004.26
2023-05-14T10:59:23.775Z,1004.32
2023-05-14T11:00:24.044Z,1004.55
2023-05-14T11:01:23.552Z,1004.57
2023-05-14T11:02:23.568Z,1004.49
2023-05-14T11:03:23.691Z,1004.49
2023-05-14T11:04:23.706Z,1004.36
2023-05-14T11:05:23.661Z,1004.41
2023-05-14T11:06:23.558Z,1004.35
2023-05-14T11:07:23.604Z,1004.29
2023-05-14T11:08:26.476Z,1004.29
2023-05-14T11:09:23.854Z,1004.22
2023-05-14T11:10:24.195Z,1004.16
2023-05-14T11:11:23.496Z,1004.14
2023-05-14T11:12:23.661Z,1004.11
2023-05-14T11:13:23.617Z,1004.08
2023-05-14T11:14:23.742Z,1004.12
2023-05-14T11:15:23.938Z,1004.03
2023-05-14T11:16:24.137Z,1003.84
2023-05-14T11:17:23.449Z,1003.78
2023-05-14T11:18:23.976Z,1003.72
2023-05-14T11:19:23.984Z,1003.71
2023-05-14T11:20:23.866Z,1003.67
2023-05-14T11:21:23.562Z,1003.57
2023-05-14T11:22:23.465Z,1003.56
2023-05-14T11:23:23.818Z,1003.57
2023-05-14T11:24:23.396Z,1003.59
2023-05-14T11:25:23.396Z,1003.59
2023-05-14T11:26:23.402Z,1003.61
2023-05-14T11:27:23.412Z,1003.60
2023-05-14T11:28:23.405Z,1003.60
2023-05-14T11:29:23.409Z,1003.57
2023-05-14T11:30:23.648Z,1003.57
2023-05-14T11:31:23.370Z,1003.53
2023-05-14T11:32:23.487Z,1003.50
2023-05-14T11:33:23.455Z,1003.44
2023-05-14T11:35:49.344Z,1003.37
2023-05-14T11:36:49.357Z,1003.42
2023-05-14T11:37:49.389Z,1003.41
2023-05-14T11:38:49.385Z,1003.31
2023-05-14T11:39:49.280Z,1003.21
2023-05-14T11:40:49.294Z,1003.21
2023-05-14T11:41:49.278Z,1003.15
2023-05-14T11:42:49.292Z,1003.17
2023-05-14T11:43:49.307Z,1003.15
2023-05-14T11:44:49.319Z,1003.12
2023-05-14T11:45:49.354Z,1003.18
2023-05-14T11:46:49.346Z,1003.15
2023-05-14T11:47:49.269Z,1003.15
2023-05-14T11:48:49.379Z,1003.10
2023-05-14T11:49:49.241Z,1003.16
2023-05-14T11:50:49.314Z,1003.07
2023-05-14T11:51:49.279Z,1003.02
2023-05-14T11:52:49.266Z,1003.03
2023-05-14T11:53:49.227Z,1003.00
2023-05-14T11:54:49.340Z,1002.92
2023-05-14T11:55:49.275Z,1002.89
2023-05-14T11:56:49.484Z,1002.85
2023-05-14T11:57:49.253Z,1002.99
2023-05-14T11:58:49.436Z,1003.09
2023-05-14T11:59:49.157Z,1003.02
2023-05-14T12:00:49.225Z,1002.91
2023-05-14T12:01:50.672Z,1003.13
2023-05-14T12:02:49.453Z,1003.18
2023-05-14T12:03:49.482Z,1003.23
2023-05-14T12:04:49.246Z,1003.38
2023-05-14T12:05:49.317Z,1003.24
2023-05-14T12:06:49.552Z,1003.10